createdAt,value
2018-05-29T00:00:58.279Z,59.80
2018-05-29T00:03:25.884Z,59.90
2018-05-29T00:05:53.451Z,59.80
2018-05-29T00:08:21.057Z,60.00
2018-05-29T00:10:48.629Z,60.00
2018-05-29T00:13:16.263Z,60.00
2018-05-29T00:15:43.829Z,60.10
2018-05-29T00:18:11.448Z,60.20
2018-05-29T00:20:39.055Z,60.20
2018-05-29T00:23:06.676Z,60.30
2018-05-29T00:25:34.260Z,60.40
2018-05-29T00:28:01.891Z,60.20
2018-05-29T00:30:29.461Z,60.40
2018-05-29T00:32:57.031Z,60.50
2018-05-29T00:35:24.671Z,60.50
2018-05-29T00:37:52.289Z,60.60
2018-05-29T00:40:19.904Z,60.70
2018-05-29T00:42:47.491Z,60.70
2018-05-29T00:45:15.124Z,60.70
2018-05-29T00:47:42.708Z,60.70
2018-05-29T00:50:10.385Z,60.70
2018-05-29T00:52:37.962Z,60.80
2018-05-29T00:55:17.322Z,60.70
2018-05-29T00:57:44.934Z,60.80
2018-05-29T01:00:12.557Z,60.80
2018-05-29T01:02:40.140Z,60.70
2018-05-29T01:05:07.749Z,60.70
2018-05-29T01:07:35.330Z,60.70
2018-05-29T01:10:03.703Z,60.70
2018-05-29T01:12:32.057Z,60.60
2018-05-29T01:14:59.667Z,60.60
2018-05-29T01:17:28.008Z,60.50
2018-05-29T01:19:55.625Z,60.50
2018-05-29T01:22:23.207Z,60.40
2018-05-29T01:24:50.777Z,60.30
2018-05-29T01:27:18.387Z,60.20
2018-05-29T01:29:45.975Z,60.20
2018-05-29T01:32:14.354Z,60.10
2018-05-29T01:34:42.714Z,60.00
2018-05-29T01:37:10.315Z,60.00
2018-05-29T01:39:38.648Z,59.80
2018-05-29T01:42:06.245Z,59.70
2018-05-29T01:44:35.442Z,59.70
2018-05-29T01:47:03.044Z,59.60
2018-05-29T01:49:30.602Z,59.60
2018-05-29T01:51:58.991Z,59.90
2018-05-29T01:54:26.562Z,59.50
2018-05-29T01:56:54.154Z,59.50
2018-05-29T01:59:23.409Z,60.00
2018-05-29T02:01:50.961Z,59.30
2018-05-29T02:04:18.613Z,59.30
2018-05-29T02:06:46.314Z,59.20
2018-05-29T02:09:13.894Z,59.20
2018-05-29T02:11:41.488Z,59.20
2018-05-29T02:14:09.091Z,59.20
2018-05-29T02:16:37.440Z,59.20
2018-05-29T02:19:05.035Z,59.10
2018-05-29T02:21:33.417Z,59.10
2018-05-29T02:24:01.010Z,59.10
2018-05-29T02:26:28.596Z,59.10
2018-05-29T02:28:56.264Z,59.00
2018-05-29T02:31:23.856Z,59.00
2018-05-29T02:33:51.452Z,59.10
2018-05-29T02:36:19.791Z,59.00
2018-05-29T02:38:47.387Z,59.00
2018-05-29T02:41:14.978Z,59.00
2018-05-29T02:43:42.571Z,59.00
2018-05-29T02:46:10.190Z,59.10
2018-05-29T02:48:37.799Z,59.10
2018-05-29T02:51:05.368Z,59.00
2018-05-29T02:53:32.992Z,59.60
2018-05-29T02:56:01.325Z,59.10
2018-05-29T02:58:28.977Z,59.10
2018-05-29T03:00:56.525Z,59.10
2018-05-29T03:03:24.850Z,59.10
2018-05-29T03:05:52.455Z,59.10
2018-05-29T03:08:20.797Z,59.20
2018-05-29T03:10:48.420Z,59.10
2018-05-29T03:13:15.983Z,59.10
2018-05-29T03:15:43.565Z,59.10
2018-05-29T03:18:11.154Z,59.10
2018-05-29T03:20:38.738Z,59.10
2018-05-29T03:23:06.286Z,59.10
2018-05-29T03:25:33.890Z,59.10
2018-05-29T03:28:02.233Z,59.10
2018-05-29T03:30:29.815Z,59.10
2018-05-29T03:32:57.447Z,59.10
2018-05-29T03:35:25.037Z,59.10
2018-05-29T03:37:52.596Z,59.10
2018-05-29T03:40:20.175Z,59.10
2018-05-29T03:42:47.752Z,59.10
2018-05-29T03:45:15.351Z,59.10
2018-05-29T03:47:42.924Z,59.10
2018-05-29T03:50:10.514Z,59.00
2018-05-29T03:52:38.137Z,59.00
2018-05-29T03:55:06.502Z,59.10
2018-05-29T03:57:34.834Z,59.00
2018-05-29T04:00:02.403Z,58.90
2018-05-29T04:02:30.000Z,59.00
2018-05-29T04:04:57.551Z,58.90
2018-05-29T04:07:26.067Z,58.90
2018-05-29T04:09:53.864Z,58.90
2018-05-29T04:12:21.472Z,58.90
2018-05-29T04:14:49.163Z,58.80
2018-05-29T04:17:16.775Z,58.80
2018-05-29T04:19:44.380Z,58.80
2018-05-29T04:22:11.973Z,58.80
2018-05-29T04:24:40.299Z,58.70
2018-05-29T04:27:08.848Z,58.70
2018-05-29T04:29:37.183Z,58.60
2018-05-29T04:32:04.805Z,58.50
2018-05-29T04:34:33.166Z,58.50
2018-05-29T04:37:01.585Z,58.70
2018-05-29T04:39:29.151Z,58.50
2018-05-29T04:41:56.761Z,58.40
2018-05-29T04:44:24.337Z,58.30
2018-05-29T04:46:51.968Z,58.10
2018-05-29T04:49:19.524Z,58.20
2018-05-29T04:51:47.114Z,58.20
2018-05-29T04:54:14.676Z,58.30
2018-05-29T04:56:42.269Z,58.30
2018-05-29T04:59:09.840Z,58.30
2018-05-29T05:01:37.427Z,58.40
2018-05-29T05:04:05.021Z,58.40
2018-05-29T05:06:32.640Z,58.40
2018-05-29T05:09:01.022Z,58.40
2018-05-29T05:11:28.573Z,58.50
2018-05-29T05:13:56.171Z,58.40
2018-05-29T05:16:23.732Z,58.40
2018-05-29T05:18:51.327Z,58.30
2018-05-29T05:21:19.642Z,58.30
2018-05-29T05:23:47.343Z,58.30
2018-05-29T05:26:15.671Z,58.30
2018-05-29T05:28:43.268Z,58.20
2018-05-29T05:31:10.858Z,58.20
2018-05-29T05:33:38.488Z,58.10
2018-05-29T05:36:06.876Z,58.10
2018-05-29T05:38:34.436Z,58.00
2018-05-29T05:41:02.023Z,58.00
2018-05-29T05:43:29.606Z,58.10
2018-05-29T05:45:57.200Z,58.00
2018-05-29T05:48:24.781Z,58.00
2018-05-29T05:50:52.380Z,57.80
2018-05-29T05:53:19.937Z,57.80
2018-05-29T05:55:47.549Z,57.80
2018-05-29T05:58:15.115Z,57.90
2018-05-29T06:00:42.701Z,57.80
2018-05-29T06:03:10.262Z,57.80
2018-05-29T06:05:37.828Z,57.70
2018-05-29T06:08:05.542Z,57.60
2018-05-29T06:10:33.882Z,57.60
2018-05-29T06:13:01.477Z,57.50
2018-05-29T06:15:29.049Z,57.50
2018-05-29T06:17:57.423Z,57.50
2018-05-29T06:20:25.001Z,57.40
2018-05-29T06:22:53.367Z,58.00
2018-05-29T06:25:20.928Z,57.30
2018-05-29T06:27:48.512Z,57.40
2018-05-29T06:30:16.883Z,57.40
2018-05-29T06:32:44.453Z,57.30
2018-05-29T06:35:12.810Z,57.30
2018-05-29T06:37:40.399Z,57.30
2018-05-29T06:40:08.012Z,57.30
2018-05-29T06:42:35.599Z,57.90
2018-05-29T06:45:03.252Z,57.30
2018-05-29T06:47:30.748Z,57.30
2018-05-29T06:49:58.341Z,57.40
2018-05-29T06:52:26.659Z,57.40
2018-05-29T06:54:54.251Z,57.30
2018-05-29T06:57:21.848Z,57.40
2018-05-29T06:59:49.413Z,57.30
2018-05-29T07:02:17.004Z,57.30
2018-05-29T07:04:44.575Z,57.20
2018-05-29T07:07:12.175Z,57.10
2018-05-29T07:09:39.732Z,57.00
2018-05-29T07:12:07.346Z,56.80
2018-05-29T07:14:35.754Z,56.70
2018-05-29T07:17:03.281Z,56.60
2018-05-29T07:19:30.872Z,56.60
2018-05-29T07:21:58.432Z,56.40
2018-05-29T07:24:26.777Z,56.40
2018-05-29T07:26:54.330Z,56.30
2018-05-29T07:29:21.917Z,56.40
2018-05-29T07:31:49.514Z,56.20
2018-05-29T07:34:17.098Z,56.10
2018-05-29T07:36:44.685Z,56.00
2018-05-29T07:39:12.283Z,56.00
2018-05-29T07:41:39.915Z,55.90
2018-05-29T07:44:07.483Z,55.40
2018-05-29T07:46:35.063Z,55.70
2018-05-29T07:49:02.619Z,55.60
2018-05-29T07:51:30.200Z,55.70
2018-05-29T07:53:57.745Z,55.60
2018-05-29T07:56:25.328Z,55.50
2018-05-29T07:58:52.898Z,55.50
2018-05-29T08:01:20.489Z,55.40
2018-05-29T08:03:48.048Z,55.30
2018-05-29T08:06:16.394Z,55.20
2018-05-29T08:08:43.957Z,55.20
2018-05-29T08:11:11.550Z,55.20
2018-05-29T08:13:39.095Z,55.10
2018-05-29T08:16:06.706Z,55.10
2018-05-29T08:18:34.291Z,55.00
2018-05-29T08:21:01.845Z,55.00
2018-05-29T08:23:29.436Z,54.90
2018-05-29T08:25:56.998Z,54.80
2018-05-29T08:28:24.584Z,54.80
2018-05-29T08:30:52.136Z,54.60
2018-05-29T08:33:19.792Z,54.60
2018-05-29T08:35:47.342Z,54.50
2018-05-29T08:38:14.931Z,54.40
2018-05-29T08:40:42.483Z,54.50
2018-05-29T08:43:10.073Z,54.40
2018-05-29T08:45:37.626Z,54.30
2018-05-29T08:48:05.207Z,54.20
2018-05-29T08:50:32.779Z,54.10
2018-05-29T08:53:00.365Z,53.90
2018-05-29T08:55:28.693Z,53.80
2018-05-29T08:57:56.281Z,53.80
2018-05-29T09:00:23.848Z,53.70
2018-05-29T09:02:51.444Z,53.60
2018-05-29T09:05:19.770Z,53.50
2018-05-29T09:07:47.349Z,53.50
2018-05-29T09:10:14.929Z,53.30
2018-05-29T09:12:42.488Z,53.20
2018-05-29T09:15:10.076Z,53.10
2018-05-29T09:17:38.397Z,52.90
2018-05-29T09:20:05.987Z,52.80
2018-05-29T09:22:33.543Z,52.70
2018-05-29T09:25:01.129Z,52.50
2018-05-29T09:27:28.688Z,52.60
2018-05-29T09:29:56.328Z,52.40
2018-05-29T09:32:24.613Z,52.10
2018-05-29T09:34:52.204Z,52.10
2018-05-29T09:37:19.767Z,52.00
2018-05-29T09:39:47.376Z,51.80
2018-05-29T09:42:14.939Z,51.70
2018-05-29T09:44:43.464Z,51.50
2018-05-29T09:47:11.043Z,51.50
2018-05-29T09:49:38.639Z,52.00
2018-05-29T09:52:06.979Z,51.10
2018-05-29T09:54:34.577Z,51.00
2018-05-29T09:57:02.956Z,50.70
2018-05-29T09:59:30.528Z,50.70
2018-05-29T10:01:58.115Z,50.20
2018-05-29T10:04:26.459Z,50.30
2018-05-29T10:06:54.207Z,50.30
2018-05-29T10:09:21.808Z,50.30
2018-05-29T10:11:50.293Z,50.30
2018-05-29T10:14:17.846Z,50.20
2018-05-29T10:16:45.439Z,50.00
2018-05-29T10:19:13.760Z,49.90
2018-05-29T10:21:41.340Z,49.80
2018-05-29T10:24:08.910Z,49.70
2018-05-29T10:26:36.490Z,49.60
2018-05-29T10:29:04.052Z,49.50
2018-05-29T10:31:31.642Z,49.40
2018-05-29T10:33:59.987Z,49.60
2018-05-29T10:36:27.593Z,49.00
2018-05-29T10:38:55.919Z,48.80
2018-05-29T10:41:23.476Z,48.80
2018-05-29T10:43:52.034Z,48.70
2018-05-29T10:46:20.362Z,48.50
2018-05-29T10:48:47.950Z,48.50
2018-05-29T10:51:15.543Z,48.30
2018-05-29T10:53:43.869Z,48.10
2018-05-29T10:56:11.473Z,48.10
2018-05-29T10:58:39.113Z,47.90
2018-05-29T11:01:06.675Z,47.90
2018-05-29T11:03:34.256Z,47.60
2018-05-29T11:06:01.828Z,47.60
2018-05-29T11:08:29.408Z,47.40
2018-05-29T11:10:56.954Z,47.20
2018-05-29T11:13:24.563Z,47.10
2018-05-29T11:15:52.129Z,47.00
2018-05-29T11:18:19.714Z,46.80
2018-05-29T11:20:47.293Z,46.60
2018-05-29T11:23:14.869Z,46.40
2018-05-29T11:25:42.428Z,46.30
2018-05-29T11:28:10.019Z,46.20
2018-05-29T11:30:37.607Z,46.10
2018-05-29T11:33:05.205Z,46.00
2018-05-29T11:35:32.765Z,45.90
2018-05-29T11:38:00.375Z,45.80
2018-05-29T11:40:27.986Z,45.60
2018-05-29T11:42:55.568Z,45.60
2018-05-29T11:45:23.144Z,45.50
2018-05-29T11:47:50.743Z,45.40
2018-05-29T11:50:18.511Z,45.40
2018-05-29T11:52:46.371Z,45.00
2018-05-29T11:55:15.030Z,44.60
2018-05-29T11:57:42.742Z,44.60
2018-05-29T12:00:11.460Z,44.30
2018-05-29T12:02:39.232Z,44.20
2018-05-29T12:05:07.006Z,44.10
2018-05-29T12:07:34.826Z,44.00
2018-05-29T12:10:02.665Z,43.90
2018-05-29T12:12:30.392Z,43.30
2018-05-29T12:14:58.109Z,43.70
2018-05-29T12:17:25.724Z,43.60
2018-05-29T12:19:54.057Z,43.50
2018-05-29T12:22:21.695Z,43.40
2018-05-29T12:24:50.001Z,43.30
2018-05-29T12:27:17.590Z,43.30
2018-05-29T12:29:45.151Z,43.10
2018-05-29T12:32:12.737Z,42.90
2018-05-29T12:34:40.300Z,43.00
2018-05-29T12:37:07.886Z,43.30
2018-05-29T12:39:36.203Z,42.40
2018-05-29T12:42:03.832Z,42.40
2018-05-29T12:44:32.153Z,42.20
2018-05-29T12:46:59.715Z,42.10
2018-05-29T12:49:27.325Z,41.90
2018-05-29T12:51:54.890Z,41.90
2018-05-29T12:54:22.485Z,41.80
2018-05-29T12:56:50.075Z,41.90
2018-05-29T12:59:17.663Z,41.80
2018-05-29T13:01:45.211Z,41.80
2018-05-29T13:04:12.784Z,41.70
2018-05-29T13:06:40.549Z,41.60
2018-05-29T13:09:08.145Z,41.50
2018-05-29T13:11:35.696Z,41.50
2018-05-29T13:14:03.275Z,41.40
2018-05-29T13:16:30.845Z,41.20
2018-05-29T13:18:58.432Z,41.20
2018-05-29T13:21:26.798Z,41.10
2018-05-29T13:23:54.364Z,41.00
2018-05-29T13:26:21.946Z,41.00
2018-05-29T13:28:50.283Z,41.00
2018-05-29T13:31:18.146Z,40.90
2018-05-29T13:33:46.599Z,41.00
2018-05-29T13:36:14.226Z,40.90
2018-05-29T13:38:41.813Z,40.90
2018-05-29T13:41:10.165Z,40.90
2018-05-29T13:43:37.749Z,40.90
2018-05-29T13:46:05.346Z,41.00
2018-05-29T13:48:32.984Z,40.80
2018-05-29T13:51:00.808Z,40.70
2018-05-29T13:53:28.450Z,40.80
2018-05-29T13:55:56.294Z,40.80
2018-05-29T13:58:25.000Z,40.70
2018-05-29T14:00:52.647Z,40.60
2018-05-29T14:03:20.257Z,40.60
2018-05-29T14:05:48.540Z,41.00
2018-05-29T14:08:16.139Z,40.30
2018-05-29T14:10:43.700Z,40.40
2018-05-29T14:13:11.289Z,40.30
2018-05-29T14:15:39.597Z,40.30
2018-05-29T14:18:07.286Z,40.00
2018-05-29T14:20:34.987Z,40.00
2018-05-29T14:23:02.884Z,39.80
2018-05-29T14:25:30.488Z,39.70
2018-05-29T14:27:58.280Z,39.50
2018-05-29T14:30:25.865Z,39.50
2018-05-29T14:32:53.456Z,39.40
2018-05-29T14:35:21.263Z,39.30
2018-05-29T14:37:50.061Z,39.20
2018-05-29T14:40:17.912Z,39.10
2018-05-29T14:42:45.799Z,38.90
2018-05-29T14:45:13.704Z,38.80
2018-05-29T14:47:42.268Z,38.70
2018-05-29T14:50:09.885Z,38.60
2018-05-29T14:52:38.216Z,38.40
2018-05-29T14:55:05.810Z,38.40
2018-05-29T14:57:33.357Z,38.30
2018-05-29T15:00:00.965Z,38.10
2018-05-29T15:02:29.283Z,37.90
2018-05-29T15:04:57.637Z,37.80
2018-05-29T15:07:25.953Z,37.80
2018-05-29T15:09:53.551Z,37.80
2018-05-29T15:12:21.111Z,37.80
2018-05-29T15:14:49.489Z,37.60
2018-05-29T15:17:17.044Z,37.50
2018-05-29T15:19:44.634Z,37.60
2018-05-29T15:22:12.188Z,37.50
2018-05-29T15:24:39.805Z,37.10
2018-05-29T15:27:07.383Z,37.30
2018-05-29T15:29:34.961Z,37.20
2018-05-29T15:32:02.546Z,37.10
2018-05-29T15:34:30.237Z,37.10
2018-05-29T15:36:57.816Z,37.10
2018-05-29T15:39:26.143Z,36.90
2018-05-29T15:41:53.733Z,36.90
2018-05-29T15:44:21.294Z,36.90
2018-05-29T15:46:48.874Z,36.90
2018-05-29T15:49:16.435Z,37.00
2018-05-29T15:51:44.018Z,37.00
2018-05-29T15:54:12.355Z,36.90
2018-05-29T15:56:39.951Z,36.90
2018-05-29T15:59:07.521Z,36.80
2018-05-29T16:01:35.119Z,36.70
2018-05-29T16:04:02.697Z,36.80
2018-05-29T16:06:31.007Z,36.80
2018-05-29T16:08:58.608Z,36.70
2018-05-29T16:11:26.930Z,36.70
2018-05-29T16:13:54.528Z,36.60
2018-05-29T16:16:22.080Z,36.60
2018-05-29T16:18:49.674Z,36.60
2018-05-29T16:21:17.255Z,36.50
2018-05-29T16:23:45.569Z,36.60
2018-05-29T16:26:13.164Z,36.50
2018-05-29T16:28:40.747Z,36.50
2018-05-29T16:31:08.327Z,36.40
2018-05-29T16:33:37.172Z,36.40
2018-05-29T16:36:04.820Z,36.40
2018-05-29T16:38:32.389Z,36.40
2018-05-29T16:40:59.983Z,36.40
2018-05-29T16:43:27.538Z,36.40
2018-05-29T16:45:55.123Z,36.40
2018-05-29T16:48:22.676Z,36.40
2018-05-29T16:50:50.256Z,36.30
2018-05-29T16:53:17.815Z,36.30
2018-05-29T16:55:45.409Z,36.30
2018-05-29T16:58:13.731Z,36.30
2018-05-29T17:00:41.343Z,36.30
2018-05-29T17:03:08.901Z,36.30
2018-05-29T17:05:36.486Z,36.30
2018-05-29T17:08:04.824Z,36.20
2018-05-29T17:10:32.395Z,36.20
2018-05-29T17:12:59.951Z,36.20
2018-05-29T17:15:27.641Z,36.10
2018-05-29T17:17:55.888Z,36.10
2018-05-29T17:20:23.490Z,36.00
2018-05-29T17:22:51.049Z,36.10
2018-05-29T17:25:18.696Z,36.00
2018-05-29T17:27:46.325Z,36.10
2018-05-29T17:30:14.626Z,35.90
2018-05-29T17:32:42.215Z,35.90
2018-05-29T17:35:09.779Z,36.00
2018-05-29T17:37:37.383Z,36.00
2018-05-29T17:40:05.721Z,35.90
2018-05-29T17:42:33.339Z,35.80
2018-05-29T17:45:00.934Z,35.80
2018-05-29T17:47:28.577Z,35.90
2018-05-29T17:49:56.136Z,35.90
2018-05-29T17:52:24.489Z,36.10
2018-05-29T17:54:52.048Z,36.10
2018-05-29T17:57:19.641Z,36.10
2018-05-29T17:59:47.981Z,36.40
2018-05-29T18:02:15.627Z,36.40
2018-05-29T18:04:43.913Z,36.70
2018-05-29T18:07:11.506Z,36.70
2018-05-29T18:09:39.086Z,36.80
2018-05-29T18:12:06.676Z,36.80
2018-05-29T18:14:34.236Z,37.50
2018-05-29T18:17:02.595Z,37.30
2018-05-29T18:19:30.153Z,37.30
2018-05-29T18:21:57.744Z,37.30
2018-05-29T18:24:26.056Z,37.60
2018-05-29T18:26:53.624Z,37.60
2018-05-29T18:29:21.211Z,37.70
2018-05-29T18:31:48.774Z,37.80
2018-05-29T18:34:16.367Z,37.90
2018-05-29T18:36:43.920Z,37.90
2018-05-29T18:39:11.584Z,38.00
2018-05-29T18:41:39.152Z,38.10
2018-05-29T18:44:07.528Z,38.30
2018-05-29T18:46:35.097Z,38.30
2018-05-29T18:49:02.747Z,38.40
2018-05-29T18:51:30.298Z,38.40
2018-05-29T18:53:57.893Z,38.50
2018-05-29T18:56:25.463Z,38.50
2018-05-29T18:58:53.051Z,38.60
2018-05-29T19:01:21.374Z,38.80
2018-05-29T19:03:48.979Z,38.70
2018-05-29T19:06:16.532Z,38.90
2018-05-29T19:08:44.136Z,38.90
2018-05-29T19:11:12.479Z,39.00
2018-05-29T19:13:40.038Z,39.00
2018-05-29T19:16:07.627Z,39.10
2018-05-29T19:18:35.177Z,39.20
2018-05-29T19:21:02.761Z,39.20
2018-05-29T19:23:31.099Z,38.90
2018-05-29T19:25:58.692Z,39.40
2018-05-29T19:28:26.272Z,39.40
2018-05-29T19:30:53.855Z,39.50
2018-05-29T19:33:22.264Z,39.70
2018-05-29T19:35:49.877Z,39.70
2018-05-29T19:38:17.442Z,39.80
2018-05-29T19:40:45.035Z,40.00
2018-05-29T19:43:12.599Z,40.00
2018-05-29T19:45:41.166Z,40.00
2018-05-29T19:48:08.733Z,40.00
2018-05-29T19:50:36.282Z,40.00
2018-05-29T19:53:03.897Z,39.50
2018-05-29T19:55:31.456Z,40.00
2018-05-29T19:57:59.007Z,40.10
2018-05-29T20:00:27.386Z,40.30
2018-05-29T20:02:55.750Z,40.40
2018-05-29T20:05:23.342Z,40.40
2018-05-29T20:07:50.939Z,40.50
2018-05-29T20:10:18.494Z,40.60
2018-05-29T20:12:46.084Z,40.60
2018-05-29T20:15:13.636Z,40.70
2018-05-29T20:17:41.223Z,40.70
2018-05-29T20:20:08.821Z,40.80
2018-05-29T20:22:36.388Z,40.90
2018-05-29T20:25:04.713Z,41.00
2018-05-29T20:27:32.428Z,40.90
2018-05-29T20:30:00.004Z,41.00
2018-05-29T20:32:28.335Z,41.10
2018-05-29T20:34:55.919Z,41.00
2018-05-29T20:37:23.482Z,41.10
2018-05-29T20:39:51.072Z,41.20
2018-05-29T20:42:18.636Z,41.20
2018-05-29T20:44:46.227Z,41.30
2018-05-29T20:47:14.574Z,41.40
2018-05-29T20:49:42.176Z,41.30
2018-05-29T20:52:09.728Z,41.30
2018-05-29T20:54:38.076Z,41.50
2018-05-29T20:57:05.661Z,41.40
2018-05-29T20:59:33.250Z,41.50
2018-05-29T21:02:01.578Z,41.50
2018-05-29T21:04:29.172Z,41.50
2018-05-29T21:06:56.731Z,41.50
2018-05-29T21:09:24.318Z,42.10
2018-05-29T21:11:51.903Z,41.60
2018-05-29T21:14:19.537Z,41.60
2018-05-29T21:16:47.101Z,41.60
2018-05-29T21:19:14.670Z,41.70
2018-05-29T21:21:42.270Z,41.80
2018-05-29T21:24:09.820Z,41.80
2018-05-29T21:26:38.188Z,42.00
2018-05-29T21:29:06.577Z,42.10
2018-05-29T21:31:34.987Z,42.00
2018-05-29T21:34:02.867Z,42.00
2018-05-29T21:36:31.050Z,42.60
2018-05-29T21:38:58.633Z,42.00
2018-05-29T21:41:26.231Z,42.10
2018-05-29T21:43:54.556Z,42.30
2018-05-29T21:46:22.170Z,42.30
2018-05-29T21:48:49.729Z,42.40
2018-05-29T21:51:17.748Z,42.50
2018-05-29T21:53:45.325Z,42.60
2018-05-29T21:56:12.943Z,42.60
2018-05-29T21:58:40.499Z,42.70
2018-05-29T22:01:08.076Z,42.80
2018-05-29T22:03:35.935Z,42.80
2018-05-29T22:06:03.697Z,42.90
2018-05-29T22:08:31.380Z,43.00
2018-05-29T22:10:59.844Z,43.10
2018-05-29T22:13:27.699Z,43.00
2018-05-29T22:15:55.287Z,43.10
2018-05-29T22:18:22.908Z,43.20
2018-05-29T22:20:50.474Z,43.30
2018-05-29T22:23:18.063Z,43.30
2018-05-29T22:25:45.694Z,43.40
2018-05-29T22:28:15.438Z,43.50
2018-05-29T22:30:43.043Z,43.50
2018-05-29T22:33:10.741Z,43.50
2018-05-29T22:35:38.382Z,44.00
2018-05-29T22:38:06.715Z,43.70
2018-05-29T22:40:34.378Z,43.70
2018-05-29T22:43:02.111Z,43.80
2018-05-29T22:45:30.480Z,43.90
2018-05-29T22:47:58.953Z,44.00
2018-05-29T22:50:26.552Z,43.90
2018-05-29T22:52:54.207Z,44.00
2018-05-29T22:55:22.672Z,44.10
2018-05-29T22:57:50.409Z,44.00
2018-05-29T23:00:18.039Z,44.00
2018-05-29T23:02:46.401Z,44.20
2018-05-29T23:05:14.026Z,44.20
2018-05-29T23:07:41.751Z,44.30
2018-05-29T23:10:10.072Z,44.40
2018-05-29T23:12:37.745Z,44.20
2018-05-29T23:15:05.305Z,44.30
2018-05-29T23:17:32.942Z,44.30
2018-05-29T23:20:00.488Z,44.40
2018-05-29T23:22:28.127Z,44.40
2018-05-29T23:24:55.702Z,44.50
2018-05-29T23:27:23.284Z,44.50
2018-05-29T23:29:51.652Z,44.80
2018-05-29T23:32:19.235Z,44.60
2018-05-29T23:34:47.567Z,44.60
2018-05-29T23:37:16.020Z,44.60
2018-05-29T23:39:43.652Z,44.60
2018-05-29T23:42:11.265Z,44.60
2018-05-29T23:44:38.815Z,44.70
2018-05-29T23:47:07.167Z,44.80
2018-05-29T23:49:34.719Z,44.70
2018-05-29T23:52:02.301Z,44.80
2018-05-29T23:54:29.881Z,44.90
2018-05-29T23:56:58.253Z,45.00
2018-05-29T23:59:25.884Z,44.90
